Time;durP1;ratioP1;P1;durP2;ratioP2;P2;SDS_P1;SDS_P2;PMS_P1;PMS_P2;Temp;Humidity;BMP_temperature;BMP_pressure;BME280_temperature;BME280_humidity;BME280_pressure;Samples;Min_cycle;Max_cycle;Signal;HPM_P1;HPM_P2
2022/09/29 02:00:30;;;;;;;;;;;;;;;15.45;71.21;98077.59;4127302;34;35990;-92
2022/09/29 02:07:42;;;;;;;;;;;;;;;15.43;71.88;98073.41;4129132;34;36574;-92
2022/09/29 02:15:38;;;;;;;;;;;;;;;15.51;71.80;98081.63;4141382;34;33417;-92
2022/09/29 02:19:45;;;;;;;;;;;;;;;15.56;71.88;98082.22;4077828;35;34096;-92
2022/09/29 02:30:28;;;;;;;;;;;;;;;15.74;71.54;98078.50;4078434;35;35435;-91
2022/09/29 02:33:49;;;;;;;;;;;;;;;15.63;71.95;98083.50;4077706;35;34136;-91
2022/09/29 02:36:55;;;;;;;;;;;;;;;15.59;72.48;98097.72;4087128;35;34077;-92
2022/09/29 02:39:58;;;;;;;;;;;;;;;15.60;72.36;98102.00;4078278;35;33490;-89
2022/09/29 02:42:39;;;;;;;;;;;;;;;15.83;71.54;98105.06;4080297;35;32257;-88
2022/09/29 02:45:20;;;;;;;;;;;;;;;15.67;72.37;98110.31;4089359;35;33504;-87
2022/09/29 02:47:54;;;;;;;;;;;;;;;15.71;72.02;98111.84;4077787;35;34064;-87
2022/09/29 02:50:31;;;;;;;;;;;;;;;15.74;72.11;98119.50;4090838;35;32581;-87
2022/09/29 02:53:02;;;;;;;;;;;;;;;15.61;72.81;98123.75;4091053;35;33772;-88
2022/09/29 02:55:33;;;;;;;;;;;;;;;15.68;72.36;98117.22;4089060;34;34723;-88
2022/09/29 02:58:03;;;;;;;;;;;;;;;15.68;72.59;98112.84;4133521;34;33614;-88
2022/09/29 03:00:31;;;;;;;;;;;;;;;15.67;72.61;98110.31;4132137;34;33745;-88
2022/09/29 03:03:00;;;;;;;;;;;;;;;15.78;72.30;98121.03;4128070;34;32571;-88
2022/09/29 03:05:30;;;;;;;;;;;;;;;15.73;72.62;98117.84;4115089;34;35799;-88
2022/09/29 03:07:59;;;;;;;;;;;;;;;15.63;73.12;98120.09;4132717;34;33887;-88
2022/09/29 03:10:34;;;;;;;;;;;;;;;15.73;72.88;98112.63;4145001;34;34225;-89
2022/09/29 03:13:07;;;;;;;;;;;;;;;15.72;72.96;98111.75;4122325;34;34499;-88
2022/09/29 03:15:35;;;;;;;;;;;;;;;15.85;72.41;98122.34;4139171;34;34691;-88
2022/09/29 03:18:08;;;;;;;;;;;;;;;15.39;74.26;98109.34;4141826;34;35035;-90
2022/09/29 03:20:38;;;;;;;;;;;;;;;15.56;74.04;98109.19;4127247;34;34988;-90
2022/09/29 03:23:10;;;;;;;;;;;;;;;15.80;73.09;98113.91;4127488;34;32599;-89
2022/09/29 03:25:40;;;;;;;;;;;;;;;15.74;73.24;98109.06;4140424;34;33522;-88
2022/09/29 03:28:09;;;;;;;;;;;;;;;15.73;73.17;98110.00;4141934;34;34369;-89
2022/09/29 03:30:38;;;;;;;;;;;;;;;15.69;73.16;98103.22;4146826;34;33826;-91
2022/09/29 03:33:12;;;;;;;;;;;;;;;15.68;73.38;98106.75;4142442;34;32827;-91
2022/09/29 03:35:41;;;;;;;;;;;;;;;15.39;74.37;98100.63;4129920;34;34544;-90
2022/09/29 03:38:12;;;;;;;;;;;;;;;15.37;74.93;98095.50;4141381;34;36844;-90
2022/09/29 03:40:45;;;;;;;;;;;;;;;15.52;73.96;98092.00;4129324;34;35608;-91
2022/09/29 05:39:58;;;;;;;;;;;;;;;15.51;76.06;98108.63;4153631;34;20004;-90
2022/09/29 06:08:58;;;;;;;;;;;;;;;15.43;75.62;98125.66;4114611;34;34790;-90
2022/09/29 07:05:32;;;;;;;;;;;;;;;13.90;79.47;98155.72;772726;29;21104;-91
2022/09/29 07:12:06;;;;;;;;;;;;;;;14.04;79.57;98169.75;4154315;34;33471;-92
2022/09/29 07:14:50;;;;;;;;;;;;;;;14.02;78.36;98171.59;4141401;34;35623;-92
2022/09/29 07:17:29;;;;;;;;;;;;;;;14.17;78.62;98174.31;4141435;34;33034;-92
2022/09/29 07:20:01;;;;;;;;;;;;;;;13.98;79.65;98175.25;4145440;34;33972;-93
2022/09/29 07:22:56;;;;;;;;;;;;;;;13.73;79.98;98169.63;4155889;34;33816;-93
2022/09/29 07:25:34;;;;;;;;;;;;;;;13.79;80.32;98177.13;4153833;34;35391;-93
2022/09/29 07:28:22;;;;;;;;;;;;;;;14.02;79.40;98176.78;4171350;33;35682;-91
2022/09/29 07:35:16;;;;;;;;;;;;;;;14.09;79.10;98183.38;4208082;33;34158;-91
2022/09/29 07:37:52;;;;;;;;;;;;;;;14.34;79.38;98192.53;4214549;33;36347;-92
2022/09/29 07:40:27;;;;;;;;;;;;;;;14.67;77.25;98186.50;4210224;33;38140;-91
2022/09/29 07:43:00;;;;;;;;;;;;;;;14.50;78.19;98198.62;4209068;33;34571;-91
2022/09/29 07:45:30;;;;;;;;;;;;;;;14.69;77.67;98198.53;4211472;33;35203;-92
2022/09/29 07:47:59;;;;;;;;;;;;;;;14.89;77.68;98204.44;4225068;33;32724;-90
2022/09/29 07:50:35;;;;;;;;;;;;;;;15.00;75.54;98211.69;4205251;33;35370;-90
2022/09/29 07:53:19;;;;;;;;;;;;;;;14.89;75.93;98207.06;4222430;33;33398;-92
2022/09/29 07:55:57;;;;;;;;;;;;;;;14.50;77.97;98219.50;4203147;33;37356;-91
2022/09/29 07:58:27;;;;;;;;;;;;;;;14.93;76.46;98211.16;4212506;33;32840;-91
2022/09/29 08:01:05;;;;;;;;;;;;;;;14.83;77.71;98210.81;4216959;33;36381;-92
2022/09/29 08:03:43;;;;;;;;;;;;;;;15.11;75.88;98211.94;4212348;33;33748;-93
2022/09/29 08:06:24;;;;;;;;;;;;;;;14.89;76.25;98209.66;4213974;33;35416;-94
2022/09/29 10:17:01;;;;;;;;;;;;;;;;;;;;;
2022/09/29 10:20:24;;;;;;;;;;;;;;;17.73;64.71;98281.75;4211130;33;32856;-91
2022/09/29 10:26:44;;;;;;;;;;;;;;;18.14;61.74;98278.22;4223324;33;35811;-91
2022/09/29 10:29:28;;;;;;;;;;;;;;;18.22;60.24;98286.44;4228480;33;34536;-92
2022/09/29 10:32:18;;;;;;;;;;;;;;;18.29;60.27;98282.47;4243174;33;35306;-91
2022/09/29 10:38:01;;;;;;;;;;;;;;;18.81;60.22;98285.97;4220799;33;35152;-92
2022/09/29 10:40:30;;;;;;;;;;;;;;;18.59;60.27;98277.87;4226857;33;35919;-91
2022/09/29 10:43:17;;;;;;;;;;;;;;;18.77;59.51;98281.84;4221657;33;33371;-91
2022/09/29 10:45:47;;;;;;;;;;;;;;;19.06;56.58;98286.87;4232165;33;33792;-90
2022/09/29 10:48:18;;;;;;;;;;;;;;;18.86;57.37;98285.66;4227457;33;34462;-90
2022/09/29 10:50:51;;;;;;;;;;;;;;;18.82;57.20;98286.81;4228107;33;35033;-91
2022/09/29 10:53:25;;;;;;;;;;;;;;;18.88;58.25;98281.97;4226974;33;33434;-91
2022/09/29 10:55:55;;;;;;;;;;;;;;;19.09;57.35;98284.06;4226749;33;33114;-91
2022/09/29 10:58:24;;;;;;;;;;;;;;;19.28;57.17;98286.19;4231205;33;32529;-91
2022/09/29 11:01:15;;;;;;;;;;;;;;;19.41;59.58;98292.25;4225597;33;34791;-91
2022/09/29 11:03:51;;;;;;;;;;;;;;;19.58;57.54;98293.69;4227918;33;35675;-91
2022/09/29 11:09:00;;;;;;;;;;;;;;;19.69;53.73;98285.03;4227315;33;33810;-90
2022/09/29 11:11:30;;;;;;;;;;;;;;;19.60;54.07;98299.69;4244393;33;33687;-90
2022/09/29 11:14:02;;;;;;;;;;;;;;;19.65;55.30;98291.44;4229260;33;34528;-91
2022/09/29 11:16:31;;;;;;;;;;;;;;;19.50;54.43;98293.37;4223495;33;34140;-91
2022/09/29 11:19:04;;;;;;;;;;;;;;;19.30;55.76;98303.53;4226108;33;34918;-90
2022/09/29 11:21:49;;;;;;;;;;;;;;;19.38;54.87;98295.97;4235852;33;35097;-91
2022/09/29 11:24:46;;;;;;;;;;;;;;;19.13;56.41;98304.72;4232376;33;34121;-91
2022/09/29 11:27:16;;;;;;;;;;;;;;;18.75;56.27;98312.66;4242245;33;33810;-91
2022/09/29 11:29:50;;;;;;;;;;;;;;;18.75;57.63;98302.13;4240571;33;34316;-90
2022/09/29 11:32:25;;;;;;;;;;;;;;;18.90;56.25;98295.84;4237057;33;34173;-91
2022/09/29 11:35:08;;;;;;;;;;;;;;;18.84;55.92;98292.78;4226235;33;34488;-90
2022/09/29 11:37:43;;;;;;;;;;;;;;;18.62;57.56;98299.50;4228687;33;33792;-90
2022/09/29 11:40:21;;;;;;;;;;;;;;;18.63;58.17;98301.19;4231479;33;34068;-91
2022/09/29 11:42:57;;;;;;;;;;;;;;;18.47;56.90;98295.28;4230623;33;34530;-92
2022/09/29 11:45:34;;;;;;;;;;;;;;;18.50;58.08;98301.16;4240014;33;33734;-90
2022/09/29 11:48:15;;;;;;;;;;;;;;;18.65;57.90;98309.81;4199403;33;876329;-91
2022/09/29 11:50:45;;;;;;;;;;;;;;;18.50;58.45;98310.84;4230913;33;34801;-90
2022/09/29 11:53:37;;;;;;;;;;;;;;;18.47;59.89;98317.13;4231461;33;35542;-92
2022/09/29 11:56:16;;;;;;;;;;;;;;;18.64;59.72;98312.53;4216907;33;33107;-91
2022/09/29 11:58:56;;;;;;;;;;;;;;;18.56;59.58;98315.69;4216516;33;33839;-90
2022/09/29 12:01:37;;;;;;;;;;;;;;;18.62;61.33;98322.28;4224552;33;34711;-90
2022/09/29 12:04:14;;;;;;;;;;;;;;;18.85;59.48;98320.75;4226230;33;34705;-92
2022/09/29 12:06:57;;;;;;;;;;;;;;;18.78;58.45;98330.84;4217809;33;33650;-91
2022/09/29 12:09:50;;;;;;;;;;;;;;;18.98;58.10;98321.59;4226798;33;33439;-90
2022/09/29 12:12:26;;;;;;;;;;;;;;;19.08;58.87;98319.16;4241683;33;34368;-91
2022/09/29 12:15:03;;;;;;;;;;;;;;;19.10;57.34;98310.22;4233530;33;34558;-91
2022/09/29 12:20:50;;;;;;;;;;;;;;;18.99;59.54;98302.22;4227183;33;34307;-93
2022/09/29 12:23:29;;;;;;;;;;;;;;;18.87;59.27;98310.97;4226612;33;35919;-91
2022/09/29 12:25:59;;;;;;;;;;;;;;;18.65;61.24;98317.69;4225970;33;34675;-89
2022/09/29 12:28:41;;;;;;;;;;;;;;;18.94;61.51;98312.22;4217845;33;34546;-91
2022/09/29 12:31:13;;;;;;;;;;;;;;;19.34;57.65;98309.44;4239133;33;34135;-91
2022/09/29 12:33:46;;;;;;;;;;;;;;;18.92;59.61;98306.25;4229551;33;35095;-91
2022/09/29 12:36:49;;;;;;;;;;;;;;;19.19;59.96;98303.47;4217947;33;34921;-91
2022/09/29 12:59:47;;;;;;;;;;;;;;;19.27;60.51;98350.25;3604392;32;20318;-92
2022/09/29 13:02:38;;;;;;;;;;;;;;;19.49;58.23;98353.03;4170641;34;32724;-91
2022/09/29 13:05:40;;;;;;;;;;;;;;;19.45;58.67;98340.22;4161909;34;34740;-92
2022/09/29 13:08:40;;;;;;;;;;;;;;;19.45;62.25;98341.06;4170745;34;32812;-90
2022/09/29 13:11:20;;;;;;;;;;;;;;;19.93;59.70;98333.22;4177580;34;35263;-91
2022/09/29 13:13:57;;;;;;;;;;;;;;;19.98;58.80;98330.25;4177092;34;34256;-90
2022/09/29 13:16:33;;;;;;;;;;;;;;;19.85;57.18;98329.50;4173264;34;35447;-91
2022/09/29 13:19:36;;;;;;;;;;;;;;;19.82;57.40;98336.66;4161742;34;33339;-91
2022/09/29 13:22:31;;;;;;;;;;;;;;;20.03;55.29;98336.06;4174660;34;34079;-90
2022/09/29 13:25:05;;;;;;;;;;;;;;;19.94;55.78;98336.72;4182603;34;35010;-90
2022/09/29 13:27:36;;;;;;;;;;;;;;;20.06;56.08;98338.44;4187301;34;34470;-91
2022/09/29 13:30:06;;;;;;;;;;;;;;;20.12;55.14;98337.97;4193061;34;34119;-91
2022/09/29 13:32:38;;;;;;;;;;;;;;;20.23;56.72;98345.09;4216229;33;33746;-91
2022/09/29 13:35:19;;;;;;;;;;;;;;;20.28;56.02;98350.03;4211791;33;35466;-91
2022/09/29 13:37:49;;;;;;;;;;;;;;;20.16;55.35;98338.59;4215399;33;37628;-92
2022/09/29 13:40:21;;;;;;;;;;;;;;;19.98;55.81;98344.28;4225277;33;34881;-91
2022/09/29 13:42:54;;;;;;;;;;;;;;;20.26;54.55;98350.13;4222128;33;34856;-92
2022/09/29 14:30:37;;;;;;;;;;;;;;;19.82;57.25;98364.78;4357602;28;20026;-92
2022/09/29 14:33:13;;;;;;;;;;;;;;;19.60;56.69;98371.53;4213790;33;35468;-91
2022/09/29 14:35:46;;;;;;;;;;;;;;;19.92;55.39;98371.03;4210436;33;34854;-92
2022/09/29 14:38:20;;;;;;;;;;;;;;;19.95;55.98;98380.50;4210337;33;34529;-90
2022/09/29 14:41:04;;;;;;;;;;;;;;;19.83;56.69;98383.06;4210188;33;31019;-93
2022/09/29 14:43:45;;;;;;;;;;;;;;;19.77;56.38;98383.53;4218987;33;33977;-93
2022/09/29 14:52:25;;;;;;;;;;;;;;;19.66;55.91;98399.19;4211001;33;35107;-92
2022/09/29 14:54:58;;;;;;;;;;;;;;;19.77;55.88;98394.03;4215577;33;34539;-92
2022/09/29 14:57:45;;;;;;;;;;;;;;;19.37;57.40;98390.72;4211718;33;34212;-92
2022/09/29 15:00:24;;;;;;;;;;;;;;;19.36;57.63;98379.38;4221149;33;33597;-93
2022/09/29 15:02:58;;;;;;;;;;;;;;;19.38;56.68;98387.16;4216386;33;33810;-92
2022/09/29 15:06:09;;;;;;;;;;;;;;;19.34;57.57;98389.16;4215190;33;33852;-92
2022/09/29 15:08:39;;;;;;;;;;;;;;;19.45;56.87;98383.16;4206491;33;35035;-94
2022/09/29 15:11:26;;;;;;;;;;;;;;;19.45;56.53;98382.28;4222449;33;34519;-92
2022/09/29 15:14:00;;;;;;;;;;;;;;;19.28;57.34;98384.34;4231242;33;35136;-91
2022/09/29 15:16:40;;;;;;;;;;;;;;;19.34;57.08;98381.25;4232939;33;33725;-93
2022/09/29 15:19:20;;;;;;;;;;;;;;;19.24;58.36;98380.22;4205573;33;33188;-93
2022/09/29 15:21:59;;;;;;;;;;;;;;;19.21;59.17;98388.34;4205606;33;35418;-93
2022/09/29 17:05:12;;;;;;;;;;;;;;;17.42;64.82;98441.06;4385654;28;19993;-94
2022/09/29 17:07:42;;;;;;;;;;;;;;;17.00;66.15;98442.69;4233479;33;35385;-91
2022/09/29 17:10:15;;;;;;;;;;;;;;;17.02;66.21;98446.06;4242957;33;33286;-91
2022/09/29 17:12:45;;;;;;;;;;;;;;;16.93;66.14;98454.47;4230902;33;34704;-94
2022/09/29 17:15:24;;;;;;;;;;;;;;;16.89;66.29;98463.44;4225703;33;34117;-92
2022/09/29 17:17:57;;;;;;;;;;;;;;;16.85;66.23;98459.31;4227840;33;35281;-92
2022/09/29 17:20:29;;;;;;;;;;;;;;;16.79;66.31;98465.78;4226653;33;35831;-92
2022/09/29 17:23:09;;;;;;;;;;;;;;;16.79;66.51;98463.16;4237249;33;34125;-93
2022/09/29 17:25:46;;;;;;;;;;;;;;;16.74;66.56;98462.50;4260071;33;34860;-92
2022/09/29 17:28:23;;;;;;;;;;;;;;;16.76;67.03;98459.81;4243566;33;32824;-91
2022/09/29 17:30:54;;;;;;;;;;;;;;;16.49;67.81;98457.03;4241706;33;34391;-93
2022/09/29 17:33:32;;;;;;;;;;;;;;;16.41;67.96;98460.91;4240532;33;34580;-92
2022/09/29 17:36:06;;;;;;;;;;;;;;;16.40;68.13;98464.44;4241607;33;33648;-92
2022/09/29 17:38:38;;;;;;;;;;;;;;;16.40;68.01;98456.59;4246885;33;32497;-91
2022/09/29 17:41:16;;;;;;;;;;;;;;;16.28;68.02;98453.84;4241870;33;34908;-93
2022/09/29 17:43:50;;;;;;;;;;;;;;;16.15;68.37;98454.53;4230505;33;34604;-92
2022/09/29 17:46:21;;;;;;;;;;;;;;;16.19;68.25;98460.44;4240218;33;34648;-92
2022/09/29 17:49:00;;;;;;;;;;;;;;;16.23;68.24;98467.16;4239807;33;32497;-94
2022/09/29 17:51:33;;;;;;;;;;;;;;;16.08;68.26;98468.87;4242161;33;33144;-90
2022/09/29 17:54:05;;;;;;;;;;;;;;;16.13;68.39;98471.25;4232351;33;32758;-93
2022/09/29 17:56:43;;;;;;;;;;;;;;;16.12;68.26;98475.63;4240967;33;33876;-93
2022/09/29 20:06:09;;;;;;;;;;;;;;;14.84;70.19;98577.22;4912708;28;20338;-93
2022/09/29 20:08:55;;;;;;;;;;;;;;;14.87;70.04;98571.84;4189783;34;33970;-92
2022/09/29 20:11:36;;;;;;;;;;;;;;;14.93;69.36;98566.28;4192921;34;34439;-92
2022/09/29 20:14:39;;;;;;;;;;;;;;;14.80;69.94;98579.12;4199939;33;33831;-93
2022/09/29 20:17:38;;;;;;;;;;;;;;;14.85;69.79;98584.13;4232486;33;35306;-93
2022/09/29 20:20:22;;;;;;;;;;;;;;;14.82;69.84;98598.16;4226764;33;33636;-92
2022/09/29 20:23:30;;;;;;;;;;;;;;;14.67;70.44;98601.53;4220943;33;36506;-94
2022/09/29 20:26:13;;;;;;;;;;;;;;;14.85;69.59;98607.63;4221891;33;33861;-93
2022/09/29 21:16:26;;;;;;;;;;;;;;;14.87;70.59;98671.06;4806616;28;19998;-92
2022/09/29 21:19:24;;;;;;;;;;;;;;;14.59;71.41;98687.16;4239169;33;34186;-93
2022/09/29 21:25:26;;;;;;;;;;;;;;;14.55;72.11;98788.25;4217226;33;35258;-85
2022/09/29 21:27:57;;;;;;;;;;;;;;;14.59;72.48;98789.78;4245434;33;33331;-87
2022/09/29 21:30:25;;;;;;;;;;;;;;;14.20;74.62;98748.81;4226050;33;34829;-90
2022/09/29 21:32:59;;;;;;;;;;;;;;;14.58;73.99;98733.28;4218299;33;34770;-90
2022/09/29 21:45:19;;;;;;;;;;;;;;;14.39;75.94;98681.03;4229383;33;35357;-91
2022/09/29 21:48:07;;;;;;;;;;;;;;;14.50;75.89;98673.56;4216924;33;32327;-89
2022/09/29 23:20:48;;;;;;;;;;;;;;;15.69;75.08;98728.94;4199367;34;34974;-92
